createdAt,value
2022-10-08T00:01:25.307Z,2.97
2022-10-08T00:04:14.199Z,3.97
2022-10-08T00:07:00.907Z,3.50
2022-10-08T00:09:48.013Z,3.30
2022-10-08T00:12:34.845Z,3.50
2022-10-08T00:15:22.058Z,3.10
2022-10-08T00:18:09.282Z,2.70
2022-10-08T00:21:07.748Z,2.50
2022-10-08T00:23:55.420Z,2.83
2022-10-08T00:26:44.078Z,2.67
2022-10-08T00:29:33.529Z,3.13
2022-10-08T00:32:21.294Z,2.87
2022-10-08T00:35:08.996Z,3.17
2022-10-08T00:37:57.626Z,2.23
2022-10-08T00:40:46.150Z,2.57
2022-10-08T00:43:45.251Z,3.20
2022-10-08T00:46:37.531Z,3.27
2022-10-08T00:49:25.684Z,3.10
2022-10-08T00:52:12.668Z,3.43
2022-10-08T00:55:01.052Z,3.57
2022-10-08T00:57:48.693Z,2.90
2022-10-08T01:00:35.921Z,3.27
2022-10-08T01:03:22.616Z,2.93
2022-10-08T01:06:21.836Z,2.87
2022-10-08T01:09:18.625Z,3.20
2022-10-08T01:12:16.018Z,3.37
2022-10-08T01:15:09.939Z,3.63
2022-10-08T01:18:04.725Z,2.30
2022-10-08T01:21:00.785Z,2.80
2022-10-08T01:24:23.630Z,2.83
2022-10-08T01:27:21.092Z,2.97
2022-10-08T01:30:12.266Z,3.20
2022-10-08T01:33:03.680Z,3.03
2022-10-08T01:35:57.279Z,2.93
2022-10-08T01:38:47.736Z,2.90
2022-10-08T01:41:35.416Z,2.90
2022-10-08T01:44:28.641Z,2.87
2022-10-08T01:47:18.487Z,2.80
2022-10-08T01:50:12.878Z,3.03
2022-10-08T01:53:03.262Z,2.57
2022-10-08T01:55:54.363Z,2.67
2022-10-08T01:58:50.039Z,2.90
2022-10-08T02:01:45.001Z,2.27
2022-10-08T02:04:37.080Z,2.53
2022-10-08T02:07:28.733Z,2.90
2022-10-08T02:10:17.858Z,2.97
2022-10-08T02:13:05.212Z,2.63
2022-10-08T02:16:00.715Z,2.50
2022-10-08T02:18:55.567Z,2.80
2022-10-08T02:21:45.115Z,2.90
2022-10-08T02:24:39.048Z,2.77
2022-10-08T02:27:31.400Z,2.67
2022-10-08T02:30:18.721Z,2.50
2022-10-08T02:33:12.295Z,3.23
2022-10-08T02:36:03.811Z,2.83
2022-10-08T02:38:54.900Z,3.17
2022-10-08T02:41:46.389Z,2.97
2022-10-08T02:44:38.075Z,3.17
2022-10-08T02:47:28.375Z,2.90
2022-10-08T02:50:21.522Z,2.50
2022-10-08T02:53:14.665Z,3.17
2022-10-08T02:56:10.785Z,3.13
2022-10-08T02:58:58.060Z,2.27
2022-10-08T03:01:47.944Z,2.40
2022-10-08T03:04:39.630Z,2.40
2022-10-08T03:07:31.087Z,2.60
2022-10-08T03:10:20.045Z,2.50
2022-10-08T03:13:08.801Z,2.73
2022-10-08T03:15:56.893Z,3.10
2022-10-08T03:18:44.783Z,3.10
2022-10-08T03:21:32.169Z,2.60
2022-10-08T03:24:18.952Z,2.70
2022-10-08T03:27:07.337Z,2.27
2022-10-08T03:29:57.197Z,2.80
2022-10-08T03:32:43.992Z,2.97
2022-10-08T03:35:32.099Z,2.77
2022-10-08T03:38:19.131Z,2.73
2022-10-08T03:41:06.095Z,2.80
2022-10-08T03:43:54.579Z,3.03
2022-10-08T03:46:41.507Z,2.83
2022-10-08T03:49:28.797Z,2.67
2022-10-08T03:52:15.621Z,2.97
2022-10-08T03:55:03.041Z,2.60
2022-10-08T03:57:49.866Z,2.60
2022-10-08T04:00:38.405Z,2.87
2022-10-08T04:03:25.932Z,2.80
2022-10-08T04:06:13.646Z,2.40
2022-10-08T04:09:00.898Z,2.60
2022-10-08T04:11:47.650Z,3.20
2022-10-08T04:14:34.800Z,3.00
2022-10-08T04:17:23.015Z,3.10
2022-10-08T04:20:11.136Z,3.10
2022-10-08T04:22:58.176Z,3.20
2022-10-08T04:25:51.121Z,3.30
2022-10-08T04:28:40.017Z,2.70
2022-10-08T04:31:27.409Z,3.87
2022-10-08T04:34:15.705Z,3.37
2022-10-08T04:37:02.506Z,3.10
2022-10-08T04:39:49.277Z,2.77
2022-10-08T04:42:36.336Z,2.70
2022-10-08T04:45:23.346Z,2.70
2022-10-08T04:48:10.402Z,3.27
2022-10-08T04:51:00.749Z,3.40
2022-10-08T04:53:47.726Z,2.87
2022-10-08T04:56:36.664Z,3.20
2022-10-08T04:59:23.929Z,3.17
2022-10-08T05:02:10.705Z,2.90
2022-10-08T05:04:57.548Z,3.47
2022-10-08T05:07:45.996Z,2.67
2022-10-08T05:10:33.108Z,2.90
2022-10-08T05:13:19.943Z,3.10
2022-10-08T05:16:08.109Z,3.30
2022-10-08T05:18:55.832Z,2.77
2022-10-08T05:21:42.672Z,2.63
2022-10-08T05:24:31.035Z,2.90
2022-10-08T05:27:18.203Z,2.97
2022-10-08T05:30:05.766Z,3.13
2022-10-08T05:32:52.414Z,2.87
2022-10-08T05:35:39.612Z,2.97
2022-10-08T05:38:26.425Z,3.20
2022-10-08T05:41:17.306Z,2.80
2022-10-08T05:44:05.088Z,2.30
2022-10-08T05:46:52.165Z,3.20
2022-10-08T05:49:39.385Z,2.57
2022-10-08T05:52:27.252Z,2.93
2022-10-08T05:55:13.997Z,3.30
2022-10-08T05:58:02.352Z,2.87
2022-10-08T06:00:58.336Z,3.00
2022-10-08T06:03:49.026Z,3.40
2022-10-08T06:06:37.035Z,2.93
2022-10-08T06:09:23.755Z,3.00
2022-10-08T06:12:12.737Z,2.90
2022-10-08T06:15:00.936Z,3.00
2022-10-08T06:17:47.823Z,3.50
2022-10-08T06:20:37.978Z,3.60
2022-10-08T06:23:25.308Z,3.23
2022-10-08T06:26:12.371Z,3.27
2022-10-08T06:28:59.292Z,2.67
2022-10-08T06:31:47.780Z,2.80
2022-10-08T06:34:34.667Z,3.10
2022-10-08T06:37:21.648Z,3.00
2022-10-08T06:40:09.354Z,3.00
2022-10-08T06:42:56.080Z,3.53
2022-10-08T06:45:43.757Z,3.20
2022-10-08T06:48:32.268Z,3.00
2022-10-08T06:51:20.813Z,2.83
2022-10-08T06:54:08.625Z,2.70
2022-10-08T06:56:55.857Z,2.80
2022-10-08T06:59:42.726Z,3.40
2022-10-08T07:02:29.930Z,2.80
2022-10-08T07:05:18.596Z,3.17
2022-10-08T07:08:05.548Z,3.40
2022-10-08T07:10:52.786Z,3.80
2022-10-08T07:13:40.715Z,3.27
2022-10-08T07:16:28.868Z,3.70
2022-10-08T07:19:15.646Z,3.57
2022-10-08T07:22:05.305Z,3.97
2022-10-08T07:24:52.358Z,3.30
2022-10-08T07:27:44.133Z,4.20
2022-10-08T07:30:33.059Z,4.00
2022-10-08T07:33:23.022Z,4.43
2022-10-08T07:36:11.896Z,4.23
2022-10-08T07:39:02.192Z,4.00
2022-10-08T07:41:50.822Z,3.60
2022-10-08T07:44:37.757Z,4.30
2022-10-08T07:47:24.845Z,4.43
2022-10-08T07:50:11.786Z,3.90
2022-10-08T07:52:58.462Z,4.17
2022-10-08T07:55:46.937Z,3.70
2022-10-08T07:58:35.150Z,3.43
2022-10-08T08:01:28.469Z,3.27
2022-10-08T08:04:15.957Z,4.27
2022-10-08T08:07:03.001Z,3.20
2022-10-08T08:09:50.000Z,4.10
2022-10-08T08:12:38.524Z,3.20
2022-10-08T08:15:25.703Z,4.00
2022-10-08T08:18:12.424Z,4.17
2022-10-08T08:21:00.305Z,3.83
2022-10-08T08:23:48.527Z,3.40
2022-10-08T08:26:37.974Z,3.80
2022-10-08T08:29:26.130Z,3.70
2022-10-08T08:32:12.886Z,4.05
2022-10-08T08:34:59.727Z,3.10
2022-10-08T08:37:46.977Z,3.30
2022-10-08T08:40:33.854Z,3.83
2022-10-08T08:43:20.868Z,3.38
2022-10-08T08:46:10.672Z,3.28
2022-10-08T08:49:01.438Z,3.47
2022-10-08T08:51:48.883Z,3.35
2022-10-08T08:54:35.666Z,3.55
2022-10-08T08:57:33.232Z,2.80
2022-10-08T09:00:23.116Z,2.97
2022-10-08T09:03:20.221Z,2.80
2022-10-08T09:06:10.242Z,2.80
2022-10-08T09:09:00.861Z,3.30
2022-10-08T09:11:49.014Z,3.03
2022-10-08T09:14:39.827Z,2.83
2022-10-08T09:17:32.701Z,2.85
2022-10-08T09:20:23.754Z,2.90
2022-10-08T09:23:15.608Z,3.00
2022-10-08T09:26:10.145Z,2.88
2022-10-08T09:28:59.114Z,3.17
2022-10-08T09:31:49.176Z,2.25
2022-10-08T09:34:36.543Z,2.45
2022-10-08T09:37:26.528Z,2.60
2022-10-08T09:40:22.490Z,3.17
2022-10-08T09:43:15.017Z,2.80
2022-10-08T09:46:05.771Z,2.80
2022-10-08T09:48:53.047Z,3.10
2022-10-08T09:51:43.445Z,2.58
2022-10-08T09:54:36.076Z,2.75
2022-10-08T09:57:23.740Z,2.47
2022-10-08T10:00:26.818Z,2.58
2022-10-08T10:03:19.132Z,2.45
2022-10-08T10:06:06.317Z,2.60
2022-10-08T10:08:58.416Z,2.35
2022-10-08T10:11:50.374Z,2.70
2022-10-08T10:14:44.521Z,2.38
2022-10-08T10:17:36.733Z,2.42
2022-10-08T10:20:28.547Z,2.42
2022-10-08T10:23:18.514Z,2.92
2022-10-08T10:26:11.904Z,3.22
2022-10-08T10:29:05.961Z,3.00
2022-10-08T10:31:58.235Z,2.83
2022-10-08T10:34:58.686Z,2.60
2022-10-08T10:37:52.904Z,2.83
2022-10-08T10:40:44.249Z,2.70
2022-10-08T10:43:44.688Z,3.20
2022-10-08T10:46:39.660Z,2.83
2022-10-08T10:49:34.080Z,3.33
2022-10-08T10:52:41.838Z,3.08
2022-10-08T10:55:36.370Z,3.05
2022-10-08T10:58:33.732Z,2.80
2022-10-08T11:01:32.518Z,3.08
2022-10-08T11:04:29.211Z,3.13
2022-10-08T11:07:33.663Z,3.22
2022-10-08T11:10:34.281Z,2.67
2022-10-08T11:13:43.490Z,3.08
2022-10-08T11:16:50.466Z,3.15
2022-10-08T11:19:49.160Z,3.25
2022-10-08T11:22:46.083Z,2.70
2022-10-08T11:26:02.698Z,3.22
2022-10-08T11:28:52.723Z,2.83
2022-10-08T11:31:43.543Z,3.63
2022-10-08T11:34:34.102Z,3.33
2022-10-08T11:37:28.562Z,2.67
2022-10-08T11:40:26.919Z,2.55
2022-10-08T11:43:23.185Z,2.47
2022-10-08T11:46:30.169Z,2.72
2022-10-08T11:49:49.205Z,2.75
2022-10-08T11:52:37.506Z,2.83
2022-10-08T11:55:28.471Z,2.22
2022-10-08T11:58:26.529Z,2.65
2022-10-08T12:01:13.315Z,2.80
2022-10-08T12:04:08.160Z,2.53
2022-10-08T12:07:07.873Z,2.30
2022-10-08T12:10:31.205Z,2.63
2022-10-08T12:13:30.627Z,2.63
2022-10-08T12:16:17.790Z,2.60
2022-10-08T12:19:04.521Z,2.83
2022-10-08T12:21:52.155Z,2.30
2022-10-08T12:24:55.427Z,2.25
2022-10-08T12:27:43.696Z,1.92
2022-10-08T12:30:49.325Z,2.08
2022-10-08T12:33:36.539Z,2.60
2022-10-08T12:36:32.377Z,2.70
2022-10-08T12:39:30.341Z,2.65
2022-10-08T12:42:22.193Z,2.20
2022-10-08T12:45:22.361Z,1.95
2022-10-08T12:48:16.430Z,2.00
2022-10-08T12:51:24.591Z,2.47
2022-10-08T12:54:19.898Z,2.20
2022-10-08T12:57:11.142Z,2.47
2022-10-08T13:00:00.519Z,2.53
2022-10-08T13:03:00.680Z,2.17
2022-10-08T13:05:48.556Z,2.15
2022-10-08T13:08:38.765Z,2.30
2022-10-08T13:11:27.650Z,2.28
2022-10-08T13:14:28.912Z,2.35
2022-10-08T13:17:29.589Z,2.55
2022-10-08T13:20:19.816Z,2.38
2022-10-08T13:23:27.955Z,2.08
2022-10-08T13:26:39.785Z,2.13
2022-10-08T13:29:32.534Z,1.92
2022-10-08T13:32:22.815Z,2.05
2022-10-08T13:35:23.559Z,1.80
2022-10-08T13:38:20.593Z,1.90
2022-10-08T13:41:08.870Z,2.20
2022-10-08T13:43:55.566Z,2.65
2022-10-08T13:46:42.423Z,2.03
2022-10-08T13:49:30.454Z,2.30
2022-10-08T13:52:21.654Z,2.33
2022-10-08T13:55:24.461Z,2.08
2022-10-08T13:58:13.789Z,2.35
2022-10-08T14:01:01.031Z,1.73
2022-10-08T14:03:47.884Z,2.00
2022-10-08T14:06:35.138Z,1.70
2022-10-08T14:09:25.734Z,1.80
2022-10-08T14:12:12.802Z,1.80
2022-10-08T14:15:00.500Z,2.28
2022-10-08T14:17:49.669Z,2.35
2022-10-08T14:20:37.880Z,2.17
2022-10-08T14:23:24.826Z,2.15
2022-10-08T14:26:13.667Z,2.63
2022-10-08T14:29:00.896Z,2.10
2022-10-08T14:31:47.621Z,1.90
2022-10-08T14:34:34.462Z,1.80
2022-10-08T14:37:21.510Z,2.03
2022-10-08T14:40:10.573Z,2.08
2022-10-08T14:42:58.987Z,1.88
2022-10-08T14:45:46.102Z,2.25
2022-10-08T14:48:33.053Z,2.17
2022-10-08T14:51:20.807Z,2.17
2022-10-08T14:54:08.766Z,2.03
2022-10-08T14:56:55.714Z,2.45
2022-10-08T14:59:44.195Z,2.67
2022-10-08T15:02:31.231Z,2.20
2022-10-08T15:05:18.212Z,2.65
2022-10-08T15:08:04.926Z,2.42
2022-10-08T15:10:52.566Z,2.05
2022-10-08T15:13:39.380Z,1.98
2022-10-08T15:16:27.773Z,2.00
2022-10-08T15:19:16.928Z,1.85
2022-10-08T15:22:06.596Z,2.10
2022-10-08T15:24:53.617Z,1.80
2022-10-08T15:27:40.475Z,1.80
2022-10-08T15:30:27.814Z,2.17
2022-10-08T15:33:16.088Z,2.00
2022-10-08T15:36:02.858Z,2.40
2022-10-08T15:38:55.730Z,1.88
2022-10-08T15:41:44.686Z,1.95
2022-10-08T15:44:32.502Z,1.77
2022-10-08T15:47:19.534Z,2.08
2022-10-08T15:50:09.155Z,2.13
2022-10-08T15:52:56.250Z,1.80
2022-10-08T15:55:43.208Z,1.90
2022-10-08T15:58:49.824Z,1.90
2022-10-08T16:01:38.340Z,2.47
2022-10-08T16:04:25.281Z,1.80
2022-10-08T16:07:13.731Z,1.80
2022-10-08T16:10:00.731Z,1.60
2022-10-08T16:12:47.599Z,2.10
2022-10-08T16:15:38.366Z,2.00
2022-10-08T16:18:25.347Z,1.63
2022-10-08T16:21:14.037Z,1.80
2022-10-08T16:24:03.181Z,2.03
2022-10-08T16:26:50.066Z,1.80
2022-10-08T16:29:37.043Z,1.50
2022-10-08T16:32:23.762Z,1.90
2022-10-08T16:35:10.862Z,2.00
2022-10-08T16:37:58.028Z,1.60
2022-10-08T16:40:46.425Z,2.00
2022-10-08T16:43:33.616Z,1.50
2022-10-08T16:46:22.631Z,1.67
2022-10-08T16:49:18.349Z,1.90
2022-10-08T16:52:08.518Z,1.53
2022-10-08T16:54:56.140Z,1.70
2022-10-08T16:57:44.295Z,1.80
2022-10-08T17:00:31.180Z,1.40
2022-10-08T17:03:18.183Z,1.70
2022-10-08T17:06:06.111Z,1.70
2022-10-08T17:08:53.343Z,2.00
2022-10-08T17:11:41.901Z,1.60
2022-10-08T17:14:31.124Z,1.37
2022-10-08T17:17:18.085Z,1.70
2022-10-08T17:20:05.874Z,1.40
2022-10-08T17:22:52.403Z,2.33
2022-10-08T17:25:39.347Z,1.50
2022-10-08T17:28:29.481Z,1.87
2022-10-08T17:31:19.527Z,1.70
2022-10-08T17:34:06.516Z,1.43
2022-10-08T17:36:53.466Z,1.30
2022-10-08T17:39:40.546Z,1.60
2022-10-08T17:42:27.791Z,2.10
2022-10-08T17:45:15.025Z,1.70
2022-10-08T17:48:03.560Z,1.90
2022-10-08T17:50:50.459Z,1.50
2022-10-08T17:53:37.613Z,1.60
2022-10-08T17:56:25.260Z,2.00
2022-10-08T17:59:15.745Z,1.97
2022-10-08T18:02:02.860Z,1.90
2022-10-08T18:04:51.146Z,1.73
2022-10-08T18:07:38.192Z,2.00
2022-10-08T18:10:25.790Z,2.07
2022-10-08T18:13:12.559Z,2.37
2022-10-08T18:16:04.758Z,1.33
2022-10-08T18:18:52.152Z,1.97
2022-10-08T18:21:40.925Z,2.30
2022-10-08T18:24:28.084Z,1.93
2022-10-08T18:27:15.230Z,2.53
2022-10-08T18:30:02.662Z,2.47
2022-10-08T18:32:50.426Z,2.40
2022-10-08T18:35:37.588Z,2.43
2022-10-08T18:38:25.962Z,2.90
2022-10-08T18:41:17.795Z,2.90
2022-10-08T18:44:06.178Z,2.47
2022-10-08T18:46:53.576Z,2.70
2022-10-08T18:49:40.472Z,2.70
2022-10-08T18:52:28.067Z,2.53
2022-10-08T18:55:16.519Z,2.80
2022-10-08T18:58:03.596Z,2.83
2022-10-08T19:00:50.505Z,2.43
2022-10-08T19:03:37.523Z,2.63
2022-10-08T19:06:28.451Z,2.10
2022-10-08T19:09:16.293Z,2.60
2022-10-08T19:12:04.459Z,3.57
2022-10-08T19:14:51.433Z,3.03
2022-10-08T19:17:38.547Z,2.30
2022-10-08T19:20:25.292Z,2.27
2022-10-08T19:23:12.462Z,2.37
2022-10-08T19:25:59.537Z,2.13
2022-10-08T19:28:49.922Z,2.10
2022-10-08T19:31:37.033Z,2.03
2022-10-08T19:34:26.026Z,1.83
2022-10-08T19:37:13.050Z,1.90
2022-10-08T19:40:00.164Z,2.40
2022-10-08T19:42:47.558Z,2.43
2022-10-08T19:45:36.813Z,2.40
2022-10-08T19:48:24.176Z,2.50
2022-10-08T19:55:31.581Z,2.77
2022-10-08T19:58:18.896Z,2.20
2022-10-08T20:01:09.805Z,2.20
2022-10-08T20:03:57.779Z,2.23
2022-10-08T20:06:45.301Z,2.50
2022-10-08T20:09:36.089Z,3.27
2022-10-08T20:12:22.848Z,2.93
2022-10-08T20:15:10.796Z,2.00
2022-10-08T20:17:59.260Z,2.03
2022-10-08T20:20:46.092Z,2.50
2022-10-08T20:23:33.591Z,2.50
2022-10-08T20:26:22.728Z,2.00
2022-10-08T20:29:11.371Z,2.70
2022-10-08T20:31:59.781Z,2.20
2022-10-08T20:34:47.988Z,2.00
2022-10-08T20:37:34.992Z,2.73
2022-10-08T20:40:21.830Z,2.90
2022-10-08T20:43:08.614Z,2.50
2022-10-08T20:45:55.997Z,2.40
2022-10-08T20:48:44.305Z,2.43
2022-10-08T20:51:34.113Z,2.67
2022-10-08T20:54:21.043Z,2.40
2022-10-08T20:57:08.742Z,2.37
2022-10-08T20:59:56.940Z,2.73
2022-10-08T21:02:43.906Z,2.20
2022-10-08T21:05:30.686Z,2.30
2022-10-08T21:08:19.290Z,2.40
2022-10-08T21:11:09.347Z,2.20
2022-10-08T21:13:57.478Z,2.10
2022-10-08T21:16:44.676Z,2.03
2022-10-08T21:19:31.762Z,1.97
2022-10-08T21:22:18.895Z,2.03
2022-10-08T21:25:08.408Z,2.33
2022-10-08T21:27:55.440Z,2.40
2022-10-08T21:30:42.686Z,1.87
2022-10-08T21:33:29.717Z,2.13
2022-10-08T21:36:18.082Z,2.37
2022-10-08T21:39:07.214Z,2.43
2022-10-08T21:41:55.698Z,2.00
2022-10-08T21:44:42.607Z,2.00
2022-10-08T21:47:29.332Z,2.20
2022-10-08T21:50:16.346Z,2.43
2022-10-08T21:53:03.206Z,2.20
2022-10-08T21:55:55.373Z,2.13
2022-10-08T21:58:45.669Z,1.90
2022-10-08T22:01:35.347Z,2.43
2022-10-08T22:04:24.683Z,2.30
2022-10-08T22:07:11.786Z,2.00
2022-10-08T22:09:59.057Z,2.27
2022-10-08T22:12:46.480Z,2.00
2022-10-08T22:15:35.588Z,2.60
2022-10-08T22:18:23.313Z,2.13
2022-10-08T22:21:15.403Z,2.47
2022-10-08T22:24:03.048Z,1.80
2022-10-08T22:26:50.167Z,2.63
2022-10-08T22:29:37.256Z,1.73
2022-10-08T22:32:26.018Z,2.30
2022-10-08T22:35:13.511Z,2.20
2022-10-08T22:38:00.387Z,1.97
2022-10-08T22:40:47.578Z,2.43
2022-10-08T22:43:36.283Z,2.40
2022-10-08T22:46:25.946Z,2.70
2022-10-08T22:49:14.276Z,2.37
2022-10-08T22:52:01.552Z,2.30
2022-10-08T22:54:48.910Z,2.50
2022-10-08T22:57:35.861Z,2.53
2022-10-08T23:00:22.943Z,2.27
2022-10-08T23:03:09.891Z,2.47
2022-10-08T23:06:08.584Z,1.73
2022-10-08T23:08:57.443Z,2.10
2022-10-08T23:11:44.860Z,2.17
2022-10-08T23:14:32.092Z,2.00
2022-10-08T23:17:19.081Z,2.57
2022-10-08T23:20:07.192Z,2.80
2022-10-08T23:22:55.919Z,1.80
2022-10-08T23:25:43.171Z,2.30
2022-10-08T23:28:31.875Z,1.97
2022-10-08T23:31:20.593Z,2.27
2022-10-08T23:34:08.808Z,2.00
2022-10-08T23:36:55.651Z,2.70
2022-10-08T23:39:44.059Z,2.40
2022-10-08T23:42:31.435Z,2.03
2022-10-08T23:45:18.902Z,2.27
2022-10-08T23:48:06.332Z,2.00
2022-10-08T23:50:54.164Z,1.80
2022-10-08T23:53:41.790Z,2.10
2022-10-08T23:56:30.710Z,1.87
2022-10-08T23:59:17.981Z,1.97
